Decoded Metar for KROA (ROANOKE in VA, USA) (IATA:ROA) | Meteo·Mobile Aviation Weather
aviador You're here:

KROA Decoded Metar

ROANOKE in VA, USA
Report Time2018-11-20 04:54:00
UTC Time2018-11-20 05:44:26
Flight Rules vfr VFR
Wind230° at 06 kt
W.Decomp.*RWY 24: 6.0 kt HW 0.2 kt LCW
RWY 16: 1.2 kt HW 5.9 kt RCW
W.Rank230° ranks 23
Current wind is below 230° avg. (6.6)
Visibility9999 m
Phenomena:N/A
Clouds:N/A
Expected CloudBase > 2,000 ft AGL from Temp-Dew spread
CeilingNone
Temp11°C (ISA -2)
Dew Point06°C (72% RH)
AAT8.0°C
QNH1014 hPa
Density Alt1,089 ft
Elevation1,188 ft
Report Wrong Elevation
Raw Report
KROA 200454Z 23006KT 10SM CLR 11/06 A2995 RMK AO2 SLP138 T01110056
401780028=

Extra information for KROA:More info

Metar Taf Metar & Taf Last 4 Metars F.Rules Stats Wind Profile Meteogram Temp Stats Airport Information Weather charts Add Link Nearby VenuesMetar ALERT Operation Metar Decoded Social comments

AIRNAV info for KROA